createdAt,value
2023-05-20T00:00:50.467Z,85.60
2023-05-20T00:03:17.588Z,86.10
2023-05-20T00:05:44.643Z,86.10
2023-05-20T00:08:11.360Z,86.40
2023-05-20T00:10:38.470Z,85.80
2023-05-20T00:13:06.850Z,85.70
2023-05-20T00:15:34.565Z,85.60
2023-05-20T00:18:02.000Z,86.40
2023-05-20T00:20:30.933Z,85.90
2023-05-20T00:22:57.817Z,85.30
2023-05-20T00:25:24.850Z,85.50
2023-05-20T00:27:51.795Z,85.80
2023-05-20T00:30:18.834Z,85.30
2023-05-20T00:32:48.489Z,85.90
2023-05-20T00:35:16.797Z,86.10
2023-05-20T00:37:43.517Z,85.70
2023-05-20T00:40:10.365Z,86.40
2023-05-20T00:42:37.340Z,86.50
2023-05-20T00:45:04.639Z,86.60
2023-05-20T00:47:33.115Z,86.20
2023-05-20T00:50:00.534Z,87.30
2023-05-20T00:52:32.049Z,87.20
2023-05-20T00:55:00.955Z,86.60
2023-05-20T00:57:27.978Z,86.60
2023-05-20T00:59:55.145Z,86.50
2023-05-20T01:02:22.199Z,86.80
2023-05-20T01:04:49.227Z,86.30
2023-05-20T01:07:17.399Z,86.80
2023-05-20T01:09:44.633Z,86.50
2023-05-20T01:12:14.469Z,86.60
2023-05-20T01:14:48.413Z,87.50
2023-05-20T01:17:18.015Z,87.40
2023-05-20T01:19:45.948Z,87.10
2023-05-20T01:22:13.411Z,86.80
2023-05-20T01:24:41.527Z,86.90
2023-05-20T01:27:11.684Z,87.10
2023-05-20T01:29:38.414Z,88.00
2023-05-20T01:32:08.812Z,87.10
2023-05-20T01:34:36.333Z,87.10
2023-05-20T01:37:05.996Z,88.20
2023-05-20T01:39:34.872Z,88.20
2023-05-20T01:42:03.359Z,88.10
2023-05-20T01:44:30.513Z,88.10
2023-05-20T01:46:57.551Z,87.80
2023-05-20T01:49:25.710Z,87.50
2023-05-20T01:51:53.382Z,87.70
2023-05-20T01:54:20.179Z,87.90
2023-05-20T01:56:47.981Z,88.60
2023-05-20T01:59:15.839Z,87.60
2023-05-20T02:01:43.504Z,87.90
2023-05-20T02:04:10.402Z,87.50
2023-05-20T02:06:37.679Z,87.60
2023-05-20T02:09:05.451Z,87.80
2023-05-20T02:11:32.746Z,87.30
2023-05-20T02:13:59.433Z,88.10
2023-05-20T02:16:29.331Z,88.10
2023-05-20T02:19:00.863Z,87.70
2023-05-20T02:21:27.679Z,87.40
2023-05-20T02:23:54.627Z,87.70
2023-05-20T02:26:25.360Z,87.70
2023-05-20T02:28:52.837Z,88.10
2023-05-20T02:31:19.551Z,87.40
2023-05-20T02:33:47.339Z,88.10
2023-05-20T02:36:17.469Z,87.80
2023-05-20T02:38:44.344Z,87.80
2023-05-20T02:41:11.339Z,87.20
2023-05-20T02:43:38.240Z,87.70
2023-05-20T02:46:06.626Z,87.20
2023-05-20T02:48:33.521Z,87.40
2023-05-20T02:51:02.272Z,88.10
2023-05-20T02:53:29.077Z,87.50
2023-05-20T02:55:58.623Z,88.00
2023-05-20T02:58:26.863Z,88.00
2023-05-20T03:00:55.382Z,87.30
2023-05-20T03:03:23.020Z,88.00
2023-05-20T03:05:57.780Z,87.30
2023-05-20T03:08:29.549Z,87.80
2023-05-20T03:11:00.785Z,87.70
2023-05-20T03:13:31.718Z,87.90
2023-05-20T03:16:01.095Z,88.20
2023-05-20T03:18:28.254Z,88.60
2023-05-20T03:20:58.363Z,88.50
2023-05-20T03:23:25.782Z,89.00
2023-05-20T03:25:52.825Z,89.50
2023-05-20T03:28:19.685Z,89.20
2023-05-20T03:30:47.933Z,89.20
2023-05-20T03:33:16.463Z,89.60
2023-05-20T03:35:43.157Z,89.50
2023-05-20T03:38:10.364Z,89.10
2023-05-20T03:40:37.230Z,89.50
2023-05-20T03:43:05.808Z,89.70
2023-05-20T03:45:35.041Z,89.40
2023-05-20T03:48:04.307Z,89.80
2023-05-20T03:50:31.732Z,89.50
2023-05-20T03:52:59.949Z,89.90
2023-05-20T03:55:28.053Z,89.70
2023-05-20T03:57:55.026Z,89.70
2023-05-20T04:00:24.887Z,89.50
2023-05-20T04:02:53.387Z,89.60
2023-05-20T04:05:20.170Z,89.80
2023-05-20T04:07:49.044Z,89.20
2023-05-20T04:10:16.017Z,89.50
2023-05-20T04:12:44.066Z,89.60
2023-05-20T04:15:13.023Z,89.60
2023-05-20T04:17:41.112Z,90.00
2023-05-20T04:20:09.201Z,90.80
2023-05-20T04:22:37.374Z,90.20
2023-05-20T04:25:06.746Z,89.90
2023-05-20T04:27:37.676Z,90.00
2023-05-20T04:30:05.012Z,89.30
2023-05-20T04:32:31.828Z,88.50
2023-05-20T04:34:59.995Z,88.00
2023-05-20T04:37:26.678Z,87.80
2023-05-20T04:39:54.123Z,87.20
2023-05-20T04:42:22.454Z,87.60
2023-05-20T04:44:49.216Z,88.00
2023-05-20T04:47:17.490Z,88.90
2023-05-20T04:49:46.413Z,89.20
2023-05-20T04:52:13.408Z,89.20
2023-05-20T04:54:40.518Z,89.20
2023-05-20T04:57:07.440Z,87.30
2023-05-20T04:59:34.765Z,83.80
2023-05-20T05:02:01.725Z,82.30
2023-05-20T05:04:30.908Z,79.60
2023-05-20T05:06:59.186Z,79.40
2023-05-20T05:09:27.384Z,79.70
2023-05-20T05:11:56.545Z,78.00
2023-05-20T05:14:23.712Z,79.20
2023-05-20T05:16:50.680Z,77.50
2023-05-20T05:19:17.581Z,74.90
2023-05-20T05:21:44.281Z,72.60
2023-05-20T05:24:11.208Z,71.50
2023-05-20T05:26:38.088Z,70.20
2023-05-20T05:29:04.997Z,71.80
2023-05-20T05:31:31.701Z,71.20
2023-05-20T05:33:58.630Z,68.80
2023-05-20T05:36:29.117Z,67.10
2023-05-20T05:38:57.574Z,65.70
2023-05-20T05:41:25.425Z,65.70
2023-05-20T05:43:52.288Z,64.00
2023-05-20T05:46:20.916Z,64.20
2023-05-20T05:48:49.186Z,62.20
2023-05-20T05:51:16.222Z,62.40
2023-05-20T05:56:24.864Z,63.90
2023-05-20T05:58:52.101Z,62.80
2023-05-20T06:01:18.836Z,62.30
2023-05-20T06:03:45.723Z,61.80
2023-05-20T06:06:16.122Z,62.30
2023-05-20T06:08:43.197Z,62.80
2023-05-20T06:11:10.104Z,62.30
2023-05-20T06:13:37.082Z,62.70
2023-05-20T06:18:46.387Z,63.30
2023-05-20T06:21:13.140Z,62.80
2023-05-20T06:23:41.125Z,63.00
2023-05-20T06:26:07.810Z,64.70
2023-05-20T06:28:34.764Z,64.10
2023-05-20T06:31:10.996Z,65.50
2023-05-20T06:33:42.148Z,66.10
2023-05-20T06:36:08.864Z,64.90
2023-05-20T06:38:37.581Z,65.30
2023-05-20T06:41:04.521Z,64.00
2023-05-20T06:46:07.767Z,64.40
2023-05-20T06:51:10.703Z,65.80
2023-05-20T06:53:37.709Z,66.20
2023-05-20T06:56:07.258Z,65.50
2023-05-20T06:58:35.620Z,66.90
2023-05-20T07:01:02.285Z,67.50
2023-05-20T07:03:29.017Z,67.00
2023-05-20T07:05:56.198Z,65.80
2023-05-20T07:11:07.174Z,64.40
2023-05-20T07:13:35.407Z,63.20
2023-05-20T07:16:02.231Z,62.60
2023-05-20T07:18:28.945Z,62.00
2023-05-20T07:20:57.310Z,62.10
2023-05-20T07:23:28.264Z,61.90
2023-05-20T07:25:56.115Z,62.40
2023-05-20T07:28:23.131Z,62.60
2023-05-20T07:33:40.850Z,60.10
2023-05-20T07:36:11.081Z,60.50
2023-05-20T07:38:42.970Z,60.90
2023-05-20T07:41:17.315Z,60.70
2023-05-20T07:43:48.060Z,60.60
2023-05-20T07:49:00.221Z,56.90
2023-05-20T07:56:51.158Z,58.60
2023-05-20T07:59:17.930Z,55.80
2023-05-20T08:01:48.376Z,55.00
2023-05-20T08:04:15.124Z,55.10
2023-05-20T08:06:43.441Z,55.20
2023-05-20T08:09:12.072Z,57.10
2023-05-20T08:16:55.039Z,58.10
2023-05-20T08:19:22.004Z,56.80
2023-05-20T08:21:49.399Z,58.80
2023-05-20T08:24:16.249Z,55.40
2023-05-20T08:26:43.189Z,55.90
2023-05-20T08:29:09.944Z,57.00
2023-05-20T08:34:12.811Z,54.70
2023-05-20T08:36:40.518Z,54.40
2023-05-20T08:39:07.309Z,54.20
2023-05-20T08:44:20.361Z,54.40
2023-05-20T08:46:49.256Z,52.70
2023-05-20T08:52:01.482Z,52.00
2023-05-20T08:54:40.942Z,53.00
2023-05-20T08:57:07.852Z,51.30
2023-05-20T08:59:37.798Z,51.10
2023-05-20T09:02:07.201Z,50.20
2023-05-20T09:07:15.989Z,50.00
2023-05-20T09:09:43.949Z,51.90
2023-05-20T09:15:04.564Z,50.20
2023-05-20T09:17:31.547Z,50.10
2023-05-20T09:19:58.582Z,50.20
2023-05-20T09:22:26.239Z,49.00
2023-05-20T09:24:54.359Z,49.40
2023-05-20T09:27:22.554Z,50.10
2023-05-20T09:32:32.776Z,50.50
2023-05-20T09:35:01.840Z,48.50
2023-05-20T09:37:32.595Z,51.10
2023-05-20T09:40:04.105Z,48.70
2023-05-20T09:42:41.245Z,49.00
2023-05-20T09:45:11.971Z,50.50
2023-05-20T09:47:41.223Z,48.90
2023-05-20T09:50:10.164Z,50.10
2023-05-20T09:52:44.863Z,50.30
2023-05-20T09:57:58.744Z,51.90
2023-05-20T10:00:27.165Z,51.90
2023-05-20T10:02:54.398Z,50.80
2023-05-20T10:05:37.420Z,51.90
2023-05-20T10:08:24.286Z,51.50
2023-05-20T10:10:59.050Z,54.20
2023-05-20T10:13:29.453Z,51.50
2023-05-20T10:16:14.949Z,50.80
2023-05-20T10:21:27.494Z,50.60
2023-05-20T10:23:55.079Z,51.30
2023-05-20T10:26:23.005Z,50.90
2023-05-20T10:31:29.849Z,50.80
2023-05-20T10:33:58.879Z,48.90
2023-05-20T10:36:33.106Z,49.10
2023-05-20T10:39:01.653Z,48.70
2023-05-20T10:41:31.302Z,48.60
2023-05-20T10:44:06.795Z,48.20
2023-05-20T10:46:48.669Z,47.60
2023-05-20T10:52:04.136Z,48.50
2023-05-20T10:54:38.957Z,49.80
2023-05-20T10:57:13.572Z,46.40
2023-05-20T10:59:41.001Z,47.60
2023-05-20T11:02:11.848Z,47.10
2023-05-20T11:04:38.808Z,44.80
2023-05-20T11:07:07.415Z,45.20
2023-05-20T11:09:35.642Z,44.90
2023-05-20T11:12:08.622Z,46.50
2023-05-20T11:14:43.900Z,44.10
2023-05-20T11:17:15.468Z,44.10
2023-05-20T11:19:43.795Z,44.20
2023-05-20T11:22:11.166Z,44.30
2023-05-20T11:27:19.563Z,44.70
2023-05-20T11:29:49.566Z,44.90
2023-05-20T11:32:19.285Z,44.20
2023-05-20T11:34:46.840Z,44.80
2023-05-20T11:37:15.883Z,45.10
2023-05-20T11:39:42.543Z,44.70
2023-05-20T11:44:52.204Z,45.20
2023-05-20T11:47:30.877Z,45.80
2023-05-20T11:52:41.677Z,45.40
2023-05-20T11:55:16.586Z,44.70
2023-05-20T11:57:43.847Z,45.00
2023-05-20T12:00:11.332Z,45.80
2023-05-20T12:02:38.160Z,45.10
2023-05-20T12:05:05.485Z,43.50
2023-05-20T12:07:33.563Z,43.90
2023-05-20T12:10:00.762Z,45.00
2023-05-20T12:12:28.492Z,45.40
2023-05-20T12:14:55.462Z,46.10
2023-05-20T12:17:22.101Z,45.30
2023-05-20T12:19:49.033Z,46.50
2023-05-20T12:22:15.822Z,44.30
2023-05-20T12:24:42.910Z,43.40
2023-05-20T12:27:10.227Z,44.00
2023-05-20T12:29:37.256Z,43.60
2023-05-20T12:32:04.205Z,42.90
2023-05-20T12:34:33.646Z,43.70
2023-05-20T12:37:00.745Z,43.20
2023-05-20T12:39:27.998Z,44.20
2023-05-20T12:41:54.683Z,44.40
2023-05-20T12:44:21.365Z,44.80
2023-05-20T12:46:48.198Z,44.50
2023-05-20T12:49:14.917Z,44.60
2023-05-20T12:51:42.749Z,44.90
2023-05-20T12:54:11.734Z,45.70
2023-05-20T12:56:39.713Z,45.80
2023-05-20T12:59:07.212Z,46.50
2023-05-20T13:01:35.220Z,45.10
2023-05-20T13:04:02.299Z,46.50
2023-05-20T13:06:30.154Z,45.40
2023-05-20T13:08:57.317Z,44.90
2023-05-20T13:11:24.613Z,44.40
2023-05-20T13:13:51.505Z,46.50
2023-05-20T13:16:18.497Z,45.80
2023-05-20T13:18:45.466Z,43.00
2023-05-20T13:21:12.302Z,41.50
2023-05-20T13:23:39.960Z,43.60
2023-05-20T13:26:07.427Z,42.70
2023-05-20T13:28:35.064Z,42.30
2023-05-20T13:31:06.371Z,42.70
2023-05-20T13:33:34.590Z,42.40
2023-05-20T13:36:01.478Z,42.00
2023-05-20T13:38:30.863Z,43.00
2023-05-20T13:40:59.801Z,43.50
2023-05-20T13:43:29.741Z,42.60
2023-05-20T13:45:57.930Z,44.80
2023-05-20T13:48:24.682Z,42.90
2023-05-20T13:50:58.552Z,43.80
2023-05-20T13:53:25.258Z,44.20
2023-05-20T13:55:56.433Z,42.50
2023-05-20T13:58:23.243Z,42.70
2023-05-20T14:00:50.689Z,42.90
2023-05-20T14:03:19.294Z,42.70
2023-05-20T14:05:47.165Z,43.90
2023-05-20T14:08:13.929Z,43.60
2023-05-20T14:10:42.174Z,42.70
2023-05-20T14:13:10.776Z,44.20
2023-05-20T14:15:40.733Z,43.00
2023-05-20T14:18:08.696Z,43.30
2023-05-20T14:20:35.713Z,43.20
2023-05-20T14:23:03.942Z,43.90
2023-05-20T14:25:30.656Z,43.20
2023-05-20T14:27:57.437Z,43.60
2023-05-20T14:30:25.055Z,43.90
2023-05-20T14:32:52.005Z,44.90
2023-05-20T14:35:19.875Z,45.20
2023-05-20T14:37:49.239Z,45.00
2023-05-20T14:40:16.786Z,43.70
2023-05-20T14:42:45.043Z,44.10
2023-05-20T14:45:12.204Z,44.00
2023-05-20T14:47:40.439Z,44.30
2023-05-20T14:50:07.684Z,44.30
2023-05-20T14:52:36.972Z,43.90
2023-05-20T14:55:05.349Z,45.00
2023-05-20T14:57:33.798Z,45.70
2023-05-20T15:00:04.145Z,45.00
2023-05-20T15:02:32.870Z,45.40
2023-05-20T15:05:02.280Z,46.30
2023-05-20T15:07:29.412Z,46.50
2023-05-20T15:09:56.447Z,46.60
2023-05-20T15:12:23.397Z,46.80
2023-05-20T15:14:51.301Z,47.10
2023-05-20T15:17:18.173Z,46.90
2023-05-20T15:19:45.142Z,46.90
2023-05-20T15:22:11.791Z,47.10
2023-05-20T15:24:39.571Z,47.60
2023-05-20T15:27:06.781Z,46.70
2023-05-20T15:29:33.782Z,48.00
2023-05-20T15:32:00.511Z,48.10
2023-05-20T15:34:27.414Z,48.20
2023-05-20T15:36:54.447Z,47.30
2023-05-20T15:39:21.656Z,46.30
2023-05-20T15:41:50.109Z,46.90
2023-05-20T15:44:18.390Z,46.20
2023-05-20T15:46:46.592Z,47.90
2023-05-20T15:49:13.601Z,47.80
2023-05-20T15:51:49.086Z,47.10
2023-05-20T15:54:22.435Z,48.20
2023-05-20T15:56:49.095Z,47.60
2023-05-20T15:59:17.154Z,49.10
2023-05-20T16:01:43.939Z,49.50
2023-05-20T16:04:10.764Z,49.40
2023-05-20T16:06:37.800Z,48.80
2023-05-20T16:09:04.596Z,49.50
2023-05-20T16:11:34.499Z,49.60
2023-05-20T16:14:01.195Z,49.40
2023-05-20T16:16:29.376Z,49.80
2023-05-20T16:18:56.520Z,49.80
2023-05-20T16:21:26.752Z,50.40
2023-05-20T16:23:54.729Z,51.50
2023-05-20T16:26:25.112Z,50.40
2023-05-20T16:28:51.855Z,50.80
2023-05-20T16:31:18.804Z,51.70
2023-05-20T16:33:46.735Z,51.70
2023-05-20T16:36:13.446Z,52.00
2023-05-20T16:38:41.787Z,52.20
2023-05-20T16:41:08.563Z,52.50
2023-05-20T16:43:35.291Z,52.80
2023-05-20T16:46:02.279Z,53.30
2023-05-20T16:48:29.087Z,53.20
2023-05-20T16:50:55.777Z,53.00
2023-05-20T16:53:22.427Z,53.20
2023-05-20T16:55:49.809Z,52.80
2023-05-20T16:58:16.670Z,53.50
2023-05-20T17:00:43.362Z,54.90
2023-05-20T17:03:10.307Z,54.20
2023-05-20T17:05:37.052Z,54.30
2023-05-20T17:08:03.802Z,54.80
2023-05-20T17:10:33.041Z,55.90
2023-05-20T17:13:01.713Z,56.60
2023-05-20T17:15:29.456Z,55.50
2023-05-20T17:17:56.302Z,55.70
2023-05-20T17:20:23.011Z,56.90
2023-05-20T17:22:49.865Z,57.10
2023-05-20T17:25:22.775Z,56.80
2023-05-20T17:27:49.437Z,57.40
2023-05-20T17:30:16.225Z,57.60
2023-05-20T17:32:43.064Z,58.10
2023-05-20T17:35:10.126Z,58.10
2023-05-20T17:37:37.685Z,58.60
2023-05-20T17:40:07.372Z,58.80
2023-05-20T17:42:35.958Z,59.10
2023-05-20T17:45:02.819Z,59.60
2023-05-20T17:47:29.556Z,59.70
2023-05-20T17:49:56.380Z,59.80
2023-05-20T17:52:23.793Z,60.20
2023-05-20T17:54:50.596Z,60.50
2023-05-20T17:57:17.485Z,61.00
2023-05-20T17:59:45.383Z,61.10
2023-05-20T18:02:12.632Z,61.90
2023-05-20T18:04:39.354Z,61.80
2023-05-20T18:07:07.526Z,61.80
2023-05-20T18:09:34.445Z,62.10
2023-05-20T18:12:01.403Z,62.90
2023-05-20T18:14:28.339Z,62.60
2023-05-20T18:16:55.430Z,62.60
2023-05-20T18:19:24.236Z,62.80
2023-05-20T18:21:52.093Z,62.80
2023-05-20T18:24:20.635Z,63.50
2023-05-20T18:26:47.384Z,63.40
2023-05-20T18:29:14.357Z,63.90
2023-05-20T18:31:43.356Z,63.70
2023-05-20T18:34:11.374Z,64.30
2023-05-20T18:36:38.029Z,64.30
2023-05-20T18:39:05.134Z,64.30
2023-05-20T18:41:45.825Z,64.90
2023-05-20T18:44:15.126Z,65.20
2023-05-20T18:46:42.094Z,65.40
2023-05-20T18:49:11.109Z,65.90
2023-05-20T18:51:38.695Z,65.90
2023-05-20T18:54:05.487Z,65.90
2023-05-20T18:56:33.087Z,66.50
2023-05-20T18:58:59.892Z,66.40
2023-05-20T19:01:27.082Z,66.80
2023-05-20T19:03:54.671Z,66.90
2023-05-20T19:06:22.261Z,67.00
2023-05-20T19:08:51.891Z,66.90
2023-05-20T19:11:19.689Z,67.40
2023-05-20T19:13:47.949Z,67.30
2023-05-20T19:16:15.066Z,67.70
2023-05-20T19:18:41.986Z,67.90
2023-05-20T19:21:08.643Z,68.00
2023-05-20T19:23:35.485Z,68.00
2023-05-20T19:26:04.579Z,68.20
2023-05-20T19:28:32.116Z,68.60
2023-05-20T19:30:58.815Z,68.80
2023-05-20T19:33:25.933Z,68.50
2023-05-20T19:35:52.687Z,68.90
2023-05-20T19:38:19.690Z,69.50
2023-05-20T19:40:47.703Z,69.30
2023-05-20T19:43:15.728Z,69.40
2023-05-20T19:45:42.608Z,69.70
2023-05-20T19:48:09.759Z,70.00
2023-05-20T19:50:37.776Z,70.10
2023-05-20T19:53:07.255Z,70.20
2023-05-20T19:55:34.834Z,70.30
2023-05-20T19:58:01.888Z,70.20
2023-05-20T20:00:30.044Z,71.50
2023-05-20T20:02:57.156Z,71.30
2023-05-20T20:05:28.192Z,71.50
2023-05-20T20:07:54.899Z,71.60
2023-05-20T20:10:21.716Z,71.50
2023-05-20T20:12:48.798Z,71.60
2023-05-20T20:15:16.124Z,72.10
2023-05-20T20:17:45.403Z,72.30
2023-05-20T20:20:16.211Z,72.40
2023-05-20T20:22:44.508Z,72.40
2023-05-20T20:25:16.454Z,72.40
2023-05-20T20:27:44.079Z,72.70
2023-05-20T20:30:11.670Z,72.60
2023-05-20T20:32:38.473Z,72.80
2023-05-20T20:35:06.076Z,72.40
2023-05-20T20:37:33.370Z,73.20
2023-05-20T20:40:07.734Z,72.70
2023-05-20T20:42:36.981Z,73.20
2023-05-20T20:45:04.267Z,73.20
2023-05-20T20:47:31.481Z,73.20
2023-05-20T20:49:58.251Z,72.90
2023-05-20T20:52:25.177Z,73.70
2023-05-20T20:54:53.455Z,73.40
2023-05-20T20:57:21.924Z,73.00
2023-05-20T20:59:48.958Z,73.30
2023-05-20T21:02:18.720Z,73.20
2023-05-20T21:04:47.371Z,73.10
2023-05-20T21:07:18.300Z,73.00
2023-05-20T21:09:46.096Z,72.90
2023-05-20T21:12:13.032Z,72.90
2023-05-20T21:14:40.957Z,73.20
2023-05-20T21:17:07.950Z,73.20
2023-05-20T21:19:36.173Z,73.80
2023-05-20T21:22:03.841Z,73.80
2023-05-20T21:24:30.656Z,73.80
2023-05-20T21:26:57.324Z,73.80
2023-05-20T21:29:25.025Z,74.50
2023-05-20T21:31:51.907Z,74.30
2023-05-20T21:34:18.581Z,75.00
2023-05-20T21:36:51.557Z,75.20
2023-05-20T21:39:18.220Z,75.40
2023-05-20T21:41:46.168Z,76.00
2023-05-20T21:44:12.874Z,76.70
2023-05-20T21:46:40.246Z,76.60
2023-05-20T21:49:06.975Z,76.10
2023-05-20T21:51:33.885Z,76.50
2023-05-20T21:54:00.679Z,76.80
2023-05-20T21:56:27.442Z,76.80
2023-05-20T21:58:54.107Z,77.00
2023-05-20T22:01:21.385Z,77.10
2023-05-20T22:03:51.055Z,76.30
2023-05-20T22:06:18.301Z,76.90
2023-05-20T22:08:47.096Z,76.90
2023-05-20T22:11:15.295Z,76.10
2023-05-20T22:13:43.370Z,77.10
2023-05-20T22:16:10.258Z,77.20
2023-05-20T22:18:38.642Z,77.30
2023-05-20T22:21:08.749Z,77.10
2023-05-20T22:23:35.527Z,77.90
2023-05-20T22:26:03.135Z,78.10
2023-05-20T22:28:31.064Z,77.90
2023-05-20T22:30:59.342Z,77.70
2023-05-20T22:33:28.858Z,77.80
2023-05-20T22:35:56.030Z,77.00
2023-05-20T22:38:24.171Z,77.60
2023-05-20T22:40:50.810Z,78.30
2023-05-20T22:43:17.691Z,77.20
2023-05-20T22:45:44.411Z,76.50
2023-05-20T22:48:12.620Z,76.80
2023-05-20T22:50:39.308Z,77.90
2023-05-20T22:53:06.323Z,77.60
2023-05-20T22:55:32.973Z,77.20
2023-05-20T22:57:59.795Z,77.40
2023-05-20T23:00:26.525Z,76.70
2023-05-20T23:02:55.321Z,76.80
2023-05-20T23:05:22.250Z,76.00
2023-05-20T23:07:51.100Z,76.20
2023-05-20T23:10:17.956Z,76.40
2023-05-20T23:12:44.781Z,76.80
2023-05-20T23:15:11.787Z,76.50
2023-05-20T23:17:39.646Z,75.90
2023-05-20T23:20:14.575Z,75.70
2023-05-20T23:22:41.368Z,75.90
2023-05-20T23:25:08.301Z,76.40
2023-05-20T23:27:35.155Z,76.30
2023-05-20T23:30:02.530Z,76.10
2023-05-20T23:32:30.964Z,75.90
2023-05-20T23:34:57.639Z,76.30
2023-05-20T23:37:24.518Z,76.40
2023-05-20T23:39:51.397Z,76.60
2023-05-20T23:42:18.065Z,77.20
2023-05-20T23:44:44.960Z,76.90
2023-05-20T23:47:13.734Z,77.00
2023-05-20T23:49:41.532Z,78.40
2023-05-20T23:52:08.475Z,78.70
2023-05-20T23:54:35.567Z,78.00
2023-05-20T23:57:02.434Z,79.70
2023-05-20T23:59:29.149Z,79.60
